Time;durP1;ratioP1;P1;durP2;ratioP2;P2;SDS_P1;SDS_P2;PMS_P1;PMS_P2;Temp;Humidity;BMP_temperature;BMP_pressure;BME280_temperature;BME280_humidity;BME280_pressure;Samples;Min_cycle;Max_cycle;Signal;HPM_P1;HPM_P2
2022/01/26 00:00:01;;;;;;;20.45;11.63;;;;;;;;;;5015803;28;20198;-84
2022/01/26 00:08:15;;;;;;;20.52;11.35;;;;;;;;;;4961727;28;20219;-84
2022/01/26 00:10:41;;;;;;;22.35;10.65;;;;;;;;;;5005267;28;20189;-84
2022/01/26 00:13:07;;;;;;;17.35;12.15;;;;;;;;;;5039977;28;20295;-84
2022/01/26 00:15:33;;;;;;;21.80;12.88;;;;;;;;;;5054332;28;20193;-84
2022/01/26 00:17:59;;;;;;;20.33;11.18;;;;;;;;;;5034588;28;20209;-84
2022/01/26 00:20:33;;;;;;;19.42;10.68;;;;;;;;;;5052751;28;20250;-85
2022/01/26 00:23:19;;;;;;;20.73;11.88;;;;;;;;;;5047233;28;20265;-84
2022/01/26 00:26:00;;;;;;;22.80;10.05;;;;;;;;;;5063541;28;20189;-84
2022/01/26 00:38:55;;;;;;;19.70;11.93;;;;;;;;;;5063132;28;20227;-85
2022/01/26 00:41:34;;;;;;;22.73;12.63;;;;;;;;;;5051352;28;20199;-84
2022/01/26 00:44:01;;;;;;;21.67;10.93;;;;;;;;;;5101738;28;20255;-84
2022/01/26 00:46:27;;;;;;;22.08;12.82;;;;;;;;;;5086489;28;20204;-84
2022/01/26 00:48:53;;;;;;;22.45;13.70;;;;;;;;;;5104779;28;20191;-85
2022/01/26 00:51:21;;;;;;;18.92;12.50;;;;;;;;;;5093236;28;20279;-85
2022/01/26 00:53:53;;;;;;;23.40;13.40;;;;;;;;;;5092534;28;20196;-85
2022/01/26 00:56:19;;;;;;;24.35;12.82;;;;;;;;;;5092459;28;20180;-84
2022/01/26 00:58:46;;;;;;;27.25;15.02;;;;;;;;;;5088575;28;20220;-84
2022/01/26 01:01:12;;;;;;;26.33;14.05;;;;;;;;;;5087453;28;20192;-84
2022/01/26 01:03:40;;;;;;;23.38;14.50;;;;;;;;;;5091464;28;20185;-84
2022/01/26 01:06:13;;;;;;;24.63;14.00;;;;;;;;;;5092994;28;20230;-85
2022/01/26 01:08:41;;;;;;;25.42;13.60;;;;;;;;;;5092556;28;20187;-84
2022/01/26 01:11:08;;;;;;;29.27;15.65;;;;;;;;;;5092642;28;20236;-84
2022/01/26 01:13:39;;;;;;;21.45;13.25;;;;;;;;;;5085660;28;20633;-84
2022/01/26 01:16:06;;;;;;;27.00;13.40;;;;;;;;;;5102164;28;20176;-85
2022/01/26 01:18:51;;;;;;;25.77;14.82;;;;;;;;;;5098796;28;20257;-84
2022/01/26 01:21:58;;;;;;;32.72;14.50;;;;;;;;;;5093723;28;20625;-84
2022/01/26 01:24:36;;;;;;;26.55;13.95;;;;;;;;;;5091098;28;20208;-84
2022/01/26 01:29:40;;;;;;;24.27;16.80;;;;;;;;;;5091239;28;20185;-85
2022/01/26 01:32:13;;;;;;;26.25;14.18;;;;;;;;;;5089319;28;20179;-85
2022/01/26 01:34:39;;;;;;;32.00;15.07;;;;;;;;;;5088322;28;20266;-85
2022/01/26 01:37:08;;;;;;;25.45;14.57;;;;;;;;;;5089078;28;20204;-85
2022/01/26 01:39:35;;;;;;;28.45;14.13;;;;;;;;;;5087092;28;20194;-84
2022/01/26 01:42:02;;;;;;;22.48;14.27;;;;;;;;;;5100038;28;20179;-85
2022/01/26 01:44:28;;;;;;;22.83;14.88;;;;;;;;;;5098353;28;20203;-84
2022/01/26 01:46:55;;;;;;;26.02;14.80;;;;;;;;;;5073268;28;20214;-85
2022/01/26 01:49:21;;;;;;;27.15;15.90;;;;;;;;;;5101808;28;20188;-85
2022/01/26 01:51:55;;;;;;;29.25;15.05;;;;;;;;;;5086239;28;20179;-84
2022/01/26 01:54:21;;;;;;;27.55;14.20;;;;;;;;;;5099932;28;20183;-84
2022/01/26 01:56:53;;;;;;;27.33;15.10;;;;;;;;;;5080001;28;20184;-85
2022/01/26 01:59:19;;;;;;;25.90;14.23;;;;;;;;;;5074647;28;20286;-84
2022/01/26 02:01:45;;;;;;;30.50;15.43;;;;;;;;;;5087322;28;20180;-85
2022/01/26 02:04:11;;;;;;;31.33;16.38;;;;;;;;;;5102005;28;20180;-84
2022/01/26 02:06:38;;;;;;;27.48;14.60;;;;;;;;;;5082678;28;20235;-85
2022/01/26 02:09:04;;;;;;;25.90;14.43;;;;;;;;;;5093977;28;20190;-85
2022/01/26 02:11:30;;;;;;;27.05;16.30;;;;;;;;;;5070708;28;20173;-85
2022/01/26 02:14:12;;;;;;;31.60;15.50;;;;;;;;;;5071166;28;20279;-84
2022/01/26 02:16:51;;;;;;;26.25;14.70;;;;;;;;;;5084476;28;20208;-85
2022/01/26 02:54:49;;;;;;;31.33;15.50;;;;;;;;;;5090638;28;20192;-85
2022/01/26 03:02:42;;;;;;;25.63;15.18;;;;;;;;;;5088766;28;20186;-84
2022/01/26 03:05:11;;;;;;;26.90;14.38;;;;;;;;;;5088820;28;20187;-84
2022/01/26 03:07:42;;;;;;;23.65;15.48;;;;;;;;;;5070052;28;20208;-84
2022/01/26 03:10:18;;;;;;;24.52;14.45;;;;;;;;;;5101506;28;20197;-84
2022/01/26 03:12:51;;;;;;;27.65;15.05;;;;;;;;;;5071524;28;20171;-84
2022/01/26 03:15:32;;;;;;;26.02;15.40;;;;;;;;;;5070186;28;20184;-84
2022/01/26 03:18:23;;;;;;;30.60;15.32;;;;;;;;;;5073170;28;20212;-84
2022/01/26 03:20:50;;;;;;;32.17;16.27;;;;;;;;;;5088520;28;20192;-84
2022/01/26 03:36:29;;;;;;;29.00;16.45;;;;;;;;;;5089318;28;20522;-84
2022/01/26 03:39:08;;;;;;;29.42;14.52;;;;;;;;;;5072422;28;20216;-84
2022/01/26 03:41:41;;;;;;;31.17;15.05;;;;;;;;;;5088742;28;20180;-85
2022/01/26 03:44:07;;;;;;;27.30;17.00;;;;;;;;;;5073709;28;20190;-84
2022/01/26 03:46:34;;;;;;;34.10;16.15;;;;;;;;;;5066538;28;20176;-84
2022/01/26 03:49:00;;;;;;;33.88;18.58;;;;;;;;;;5086936;28;20176;-84
2022/01/26 03:51:26;;;;;;;36.05;18.88;;;;;;;;;;5071677;28;20204;-84
2022/01/26 03:53:53;;;;;;;32.38;17.70;;;;;;;;;;5089271;28;20196;-84
2022/01/26 03:56:19;;;;;;;32.10;16.02;;;;;;;;;;5076976;28;20184;-84
2022/01/26 03:58:45;;;;;;;35.65;19.45;;;;;;;;;;5072285;28;20204;-84
2022/01/26 04:01:11;;;;;;;35.63;19.02;;;;;;;;;;5103449;28;20199;-84
2022/01/26 04:03:44;;;;;;;34.90;18.00;;;;;;;;;;5075912;28;20203;-84
2022/01/26 04:06:11;;;;;;;38.08;17.75;;;;;;;;;;5076735;28;20202;-84
2022/01/26 04:08:40;;;;;;;27.58;14.52;;;;;;;;;;5092490;28;20184;-84
2022/01/26 04:13:35;;;;;;;34.53;17.70;;;;;;;;;;5088332;28;20219;-84
2022/01/26 04:16:02;;;;;;;36.17;17.48;;;;;;;;;;5105778;28;20178;-84
2022/01/26 04:18:35;;;;;;;38.38;18.70;;;;;;;;;;5075110;28;20199;-84
2022/01/26 04:21:09;;;;;;;33.78;17.00;;;;;;;;;;5076594;28;20172;-84
2022/01/26 04:23:47;;;;;;;32.38;17.02;;;;;;;;;;5077065;28;20263;-84
2022/01/26 04:26:16;;;;;;;31.20;17.15;;;;;;;;;;5077154;28;20176;-84
2022/01/26 04:28:52;;;;;;;32.58;16.38;;;;;;;;;;5085446;28;20188;-84
2022/01/26 04:31:20;;;;;;;39.10;16.75;;;;;;;;;;5093864;28;20172;-84
2022/01/26 04:33:46;;;;;;;36.28;17.85;;;;;;;;;;5107544;28;20241;-84
2022/01/26 04:36:18;;;;;;;34.25;16.45;;;;;;;;;;5077989;28;20207;-84
2022/01/26 04:38:49;;;;;;;30.35;17.77;;;;;;;;;;5092322;28;20465;-84
2022/01/26 04:41:28;;;;;;;31.15;16.00;;;;;;;;;;5092845;28;20561;-84
2022/01/26 04:43:59;;;;;;;36.75;17.65;;;;;;;;;;5091685;28;20179;-84
2022/01/26 04:46:26;;;;;;;35.33;18.98;;;;;;;;;;5086179;28;20168;-84
2022/01/26 04:48:53;;;;;;;31.52;16.50;;;;;;;;;;5091055;28;20231;-84
2022/01/26 04:51:19;;;;;;;29.23;17.95;;;;;;;;;;5091427;28;20188;-84
2022/01/26 04:53:44;;;;;;;30.60;17.55;;;;;;;;;;5091658;28;20271;-84
2022/01/26 04:56:13;;;;;;;35.00;16.73;;;;;;;;;;5093376;28;20195;-84
2022/01/26 04:58:39;;;;;;;33.85;17.67;;;;;;;;;;5087016;28;20203;-84
2022/01/26 05:01:06;;;;;;;39.85;16.95;;;;;;;;;;5100959;28;20191;-84
2022/01/26 05:03:32;;;;;;;41.65;17.50;;;;;;;;;;5103500;28;20187;-84
2022/01/26 05:05:57;;;;;;;42.47;18.80;;;;;;;;;;5093940;28;20255;-84
2022/01/26 05:08:23;;;;;;;31.50;17.25;;;;;;;;;;5094461;28;20188;-84
2022/01/26 05:10:49;;;;;;;33.30;19.02;;;;;;;;;;5103506;28;20199;-83
2022/01/26 05:13:16;;;;;;;32.42;17.38;;;;;;;;;;5088197;28;20192;-84
2022/01/26 05:15:42;;;;;;;33.78;18.42;;;;;;;;;;5103440;28;20178;-84
2022/01/26 05:18:09;;;;;;;34.42;19.60;;;;;;;;;;5094592;28;20267;-84
2022/01/26 05:20:35;;;;;;;37.20;18.23;;;;;;;;;;5092411;28;20200;-84
2022/01/26 05:23:01;;;;;;;35.78;18.58;;;;;;;;;;5091081;28;20172;-83
2022/01/26 05:25:27;;;;;;;37.10;19.55;;;;;;;;;;5085401;28;20241;-84
2022/01/26 05:27:53;;;;;;;35.92;18.17;;;;;;;;;;5103406;28;20266;-84
2022/01/26 05:30:19;;;;;;;35.30;17.40;;;;;;;;;;5090323;28;20192;-84
2022/01/26 05:32:45;;;;;;;36.58;19.05;;;;;;;;;;5092542;28;20637;-84
2022/01/26 05:35:11;;;;;;;39.38;18.95;;;;;;;;;;5091595;28;20213;-84
2022/01/26 05:37:39;;;;;;;43.15;21.75;;;;;;;;;;5086909;28;20245;-84
2022/01/26 05:40:05;;;;;;;37.55;18.02;;;;;;;;;;5088271;28;20198;-84
2022/01/26 05:42:34;;;;;;;34.35;17.70;;;;;;;;;;5086947;28;20172;-84
2022/01/26 05:45:04;;;;;;;40.55;19.30;;;;;;;;;;5093857;28;20177;-84
2022/01/26 05:47:32;;;;;;;39.95;19.80;;;;;;;;;;5074690;28;20183;-84
2022/01/26 05:49:58;;;;;;;36.53;17.75;;;;;;;;;;5074545;28;20187;-84
2022/01/26 05:52:24;;;;;;;51.40;21.60;;;;;;;;;;5086432;28;20229;-84
2022/01/26 05:55:01;;;;;;;35.22;18.40;;;;;;;;;;5086508;28;20167;-84
2022/01/26 05:57:27;;;;;;;37.78;18.90;;;;;;;;;;5102635;28;20226;-84
2022/01/26 05:59:54;;;;;;;39.05;18.63;;;;;;;;;;5079249;28;20188;-84
2022/01/26 06:02:20;;;;;;;39.60;18.60;;;;;;;;;;5089381;28;20172;-84
2022/01/26 06:04:46;;;;;;;38.00;19.88;;;;;;;;;;5071229;28;20244;-84
2022/01/26 06:07:12;;;;;;;40.67;20.30;;;;;;;;;;5089431;28;20181;-84
2022/01/26 06:09:38;;;;;;;40.58;19.98;;;;;;;;;;5073982;28;20177;-84
2022/01/26 06:12:04;;;;;;;40.67;18.80;;;;;;;;;;5074462;28;20285;-83
2022/01/26 06:14:30;;;;;;;35.83;20.08;;;;;;;;;;5071870;28;20191;-83
2022/01/26 06:16:56;;;;;;;36.78;21.80;;;;;;;;;;5072853;28;20187;-84
2022/01/26 06:19:22;;;;;;;35.15;19.85;;;;;;;;;;5093108;28;20283;-84
2022/01/26 06:21:48;;;;;;;35.47;19.07;;;;;;;;;;5089357;28;20180;-84
2022/01/26 06:24:14;;;;;;;45.80;20.25;;;;;;;;;;5073978;28;20438;-84
2022/01/26 06:26:41;;;;;;;40.00;19.27;;;;;;;;;;5091284;28;20176;-84
2022/01/26 06:29:08;;;;;;;45.58;20.83;;;;;;;;;;5099453;28;20243;-84
2022/01/26 06:31:34;;;;;;;38.05;18.40;;;;;;;;;;5084763;28;20186;-84
2022/01/26 06:34:03;;;;;;;34.97;19.02;;;;;;;;;;5088219;28;20545;-84
2022/01/26 06:36:29;;;;;;;38.25;20.20;;;;;;;;;;5089681;28;20188;-84
2022/01/26 06:38:55;;;;;;;39.55;20.55;;;;;;;;;;5089601;28;20230;-84
2022/01/26 06:41:26;;;;;;;41.25;20.38;;;;;;;;;;5074407;28;20176;-84
2022/01/26 06:44:45;;;;;;;40.47;20.95;;;;;;;;;;5072410;28;20180;-84
2022/01/26 06:49:31;;;;;;;38.22;20.10;;;;;;;;;;5020835;28;20253;-84
2022/01/26 06:51:57;;;;;;;45.28;22.45;;;;;;;;;;4992355;28;20246;-84
2022/01/26 06:54:24;;;;;;;38.70;20.92;;;;;;;;;;5003985;28;20222;-83
2022/01/26 06:56:50;;;;;;;41.85;20.95;;;;;;;;;;5004269;28;20391;-84
2022/01/26 06:59:16;;;;;;;39.80;20.75;;;;;;;;;;5002978;28;20210;-83
2022/01/26 07:01:42;;;;;;;51.80;23.17;;;;;;;;;;5003794;28;20205;-84
2022/01/26 07:04:08;;;;;;;42.08;23.98;;;;;;;;;;5004241;28;20269;-83
2022/01/26 07:06:35;;;;;;;41.50;22.15;;;;;;;;;;5005560;28;20186;-84
2022/01/26 07:09:01;;;;;;;44.15;22.65;;;;;;;;;;5003928;28;20190;-83
2022/01/26 07:11:27;;;;;;;45.83;21.55;;;;;;;;;;5004922;28;20573;-84
2022/01/26 07:13:54;;;;;;;48.70;22.50;;;;;;;;;;5005035;28;20229;-84
2022/01/26 07:21:49;;;;;;;47.97;22.33;;;;;;;;;;5009252;28;20242;-83
2022/01/26 07:24:15;;;;;;;40.38;20.02;;;;;;;;;;5002325;28;20182;-82
2022/01/26 07:26:43;;;;;;;48.20;22.85;;;;;;;;;;5061699;28;20194;-84
2022/01/26 07:29:13;;;;;;;46.70;25.10;;;;;;;;;;5083314;28;20671;-84
2022/01/26 07:31:42;;;;;;;42.58;22.95;;;;;;;;;;5067486;28;20190;-83
2022/01/26 07:34:10;;;;;;;41.08;23.30;;;;;;;;;;5088125;28;20207;-83
2022/01/26 07:36:36;;;;;;;55.17;23.15;;;;;;;;;;5073022;28;20231;-83
2022/01/26 07:39:09;;;;;;;45.60;23.02;;;;;;;;;;5078046;28;20219;-83
2022/01/26 07:41:36;;;;;;;41.35;23.73;;;;;;;;;;5098947;28;20677;-83
2022/01/26 07:44:02;;;;;;;48.67;24.55;;;;;;;;;;5084096;28;20179;-83
2022/01/26 07:46:29;;;;;;;52.60;26.27;;;;;;;;;;5083691;28;20262;-84
2022/01/26 07:48:55;;;;;;;45.67;24.00;;;;;;;;;;5085100;28;20180;-82
2022/01/26 07:51:21;;;;;;;37.25;20.45;;;;;;;;;;5098724;28;20207;-82
2022/01/26 07:53:48;;;;;;;40.53;22.60;;;;;;;;;;5078055;28;20184;-82
2022/01/26 07:56:14;;;;;;;46.63;23.70;;;;;;;;;;5081055;28;20186;-82
2022/01/26 07:58:41;;;;;;;48.88;25.30;;;;;;;;;;5087577;28;20743;-81
2022/01/26 08:01:07;;;;;;;39.47;20.73;;;;;;;;;;5096314;28;20176;-81
2022/01/26 08:03:33;;;;;;;37.65;21.20;;;;;;;;;;5097152;28;20276;-81
2022/01/26 08:06:06;;;;;;;45.65;23.42;;;;;;;;;;5091612;28;20203;-81
2022/01/26 08:08:32;;;;;;;49.55;24.38;;;;;;;;;;5070674;28;20196;-81
2022/01/26 08:11:00;;;;;;;44.50;24.10;;;;;;;;;;5069307;28;20191;-86
2022/01/26 08:13:26;;;;;;;43.63;23.42;;;;;;;;;;5099313;28;20176;-86
2022/01/26 08:15:57;;;;;;;53.08;25.52;;;;;;;;;;5084174;28;20172;-86
2022/01/26 08:18:24;;;;;;;46.40;23.00;;;;;;;;;;5095911;28;20195;-85
2022/01/26 08:20:50;;;;;;;47.22;26.25;;;;;;;;;;5070556;28;20577;-84
2022/01/26 08:23:17;;;;;;;48.75;26.80;;;;;;;;;;5091722;28;20183;-86
2022/01/26 08:25:43;;;;;;;52.33;24.73;;;;;;;;;;5074781;28;20661;-87
2022/01/26 08:28:18;;;;;;;49.13;24.02;;;;;;;;;;5071623;28;20177;-85
2022/01/26 08:30:44;;;;;;;52.05;26.05;;;;;;;;;;5081690;28;20172;-86
2022/01/26 08:33:10;;;;;;;47.70;24.73;;;;;;;;;;5072499;28;20211;-84
2022/01/26 08:35:36;;;;;;;42.22;22.85;;;;;;;;;;5075110;28;20519;-86
2022/01/26 08:38:02;;;;;;;43.40;24.33;;;;;;;;;;5079178;28;20231;-85
2022/01/26 08:40:30;;;;;;;44.30;23.38;;;;;;;;;;5096424;28;20184;-84
2022/01/26 08:42:56;;;;;;;46.35;22.50;;;;;;;;;;5100272;28;20175;-82
2022/01/26 08:45:23;;;;;;;51.40;24.50;;;;;;;;;;5100139;28;20199;-85
2022/01/26 08:47:49;;;;;;;46.05;24.90;;;;;;;;;;5093236;28;20188;-84
2022/01/26 08:50:16;;;;;;;48.88;23.38;;;;;;;;;;5102521;28;20238;-85
2022/01/26 08:52:42;;;;;;;48.15;24.45;;;;;;;;;;5090099;28;20225;-85
2022/01/26 08:55:10;;;;;;;52.05;24.70;;;;;;;;;;5094477;28;20185;-84
2022/01/26 08:57:36;;;;;;;52.22;26.20;;;;;;;;;;5104723;28;20195;-85
2022/01/26 09:00:02;;;;;;;38.45;22.40;;;;;;;;;;5096796;28;20191;-84
2022/01/26 09:02:28;;;;;;;48.20;25.55;;;;;;;;;;5095827;28;20176;-86
2022/01/26 09:04:54;;;;;;;49.67;25.45;;;;;;;;;;5091838;28;20184;-86
2022/01/26 09:07:20;;;;;;;47.15;26.30;;;;;;;;;;5100423;28;20180;-87
2022/01/26 09:09:46;;;;;;;57.40;24.35;;;;;;;;;;5087781;28;20196;-83
2022/01/26 09:12:18;;;;;;;50.20;25.50;;;;;;;;;;5090486;28;20259;-85
2022/01/26 09:14:44;;;;;;;47.83;25.35;;;;;;;;;;5092940;28;20184;-84
2022/01/26 09:17:11;;;;;;;47.65;25.00;;;;;;;;;;5096088;28;20210;-85
2022/01/26 09:19:38;;;;;;;60.10;26.45;;;;;;;;;;5101250;28;20200;-86
2022/01/26 09:22:06;;;;;;;45.80;23.10;;;;;;;;;;5104738;28;20168;-86
2022/01/26 09:24:33;;;;;;;53.40;27.52;;;;;;;;;;5090999;28;20217;-85
2022/01/26 09:26:59;;;;;;;50.20;25.40;;;;;;;;;;5090492;28;20189;-85
2022/01/26 09:29:26;;;;;;;53.42;26.67;;;;;;;;;;5089243;28;20180;-86
2022/01/26 09:31:52;;;;;;;44.95;25.05;;;;;;;;;;5099176;28;20192;-85
2022/01/26 09:34:18;;;;;;;50.15;24.58;;;;;;;;;;5085790;28;20184;-85
2022/01/26 09:36:45;;;;;;;54.65;27.20;;;;;;;;;;5099136;28;20206;-83
2022/01/26 09:39:12;;;;;;;48.33;26.42;;;;;;;;;;5057173;28;20224;-86
2022/01/26 09:41:38;;;;;;;56.90;26.65;;;;;;;;;;5053046;28;20244;-86
2022/01/26 09:44:05;;;;;;;52.17;26.77;;;;;;;;;;5057251;28;20226;-85
2022/01/26 09:46:30;;;;;;;50.72;26.58;;;;;;;;;;5048292;28;20208;-86
2022/01/26 09:48:57;;;;;;;48.65;24.48;;;;;;;;;;5080835;28;20200;-86
2022/01/26 09:51:23;;;;;;;54.75;26.00;;;;;;;;;;5060529;28;20244;-86
2022/01/26 09:54:03;;;;;;;48.45;24.63;;;;;;;;;;5054636;28;20189;-85
2022/01/26 09:56:29;;;;;;;49.33;25.30;;;;;;;;;;5052263;28;20189;-84
2022/01/26 09:58:55;;;;;;;45.45;23.35;;;;;;;;;;5055393;28;20200;-84
2022/01/26 10:01:21;;;;;;;54.35;29.13;;;;;;;;;;5049050;28;20188;-85
2022/01/26 10:03:49;;;;;;;56.28;27.92;;;;;;;;;;5079212;28;20230;-85
2022/01/26 10:06:26;;;;;;;53.83;26.27;;;;;;;;;;5058197;28;20181;-84
2022/01/26 10:09:12;;;;;;;55.70;26.00;;;;;;;;;;5055888;28;20199;-84
2022/01/26 10:17:42;;;;;;;52.45;29.23;;;;;;;;;;5070960;28;20192;-84
2022/01/26 10:20:03;;;;;;;48.45;26.20;;;;;;;;;;5067461;28;20200;-83
2022/01/26 10:22:33;;;;;;;55.50;26.52;;;;;;;;;;5062319;28;20214;-83
2022/01/26 10:25:19;;;;;;;55.28;28.55;;;;;;;;;;5061727;28;20184;-82
2022/01/26 10:27:46;;;;;;;55.15;28.65;;;;;;;;;;5076669;28;20204;-82
2022/01/26 10:30:14;;;;;;;46.10;26.98;;;;;;;;;;5077864;28;20194;-83
2022/01/26 10:32:41;;;;;;;49.78;25.33;;;;;;;;;;5060527;28;20202;-83
2022/01/26 10:35:07;;;;;;;54.78;28.77;;;;;;;;;;5054029;28;20192;-82
2022/01/26 10:37:34;;;;;;;47.35;29.67;;;;;;;;;;5066789;28;20280;-81
2022/01/26 10:40:09;;;;;;;56.80;27.30;;;;;;;;;;5095426;28;20256;-83
2022/01/26 10:42:35;;;;;;;50.05;27.08;;;;;;;;;;5086755;28;20164;-83
2022/01/26 10:47:37;;;;;;;49.65;25.75;;;;;;;;;;5089006;28;20180;-84
2022/01/26 10:50:31;;;;;;;48.53;26.48;;;;;;;;;;5085987;28;20204;-84
2022/01/26 10:53:08;;;;;;;52.03;26.50;;;;;;;;;;5088170;28;20175;-84
2022/01/26 10:55:36;;;;;;;52.80;29.00;;;;;;;;;;5096605;28;20187;-83
2022/01/26 10:58:03;;;;;;;50.05;25.92;;;;;;;;;;5097786;28;20216;-83
2022/01/26 11:00:33;;;;;;;48.35;24.35;;;;;;;;;;5090100;28;20176;-83
2022/01/26 11:02:59;;;;;;;54.70;28.02;;;;;;;;;;5090215;28;20207;-83
2022/01/26 11:05:25;;;;;;;56.22;28.02;;;;;;;;;;5094490;28;20206;-83
2022/01/26 11:07:52;;;;;;;52.50;28.40;;;;;;;;;;5087816;28;20181;-83
2022/01/26 11:10:18;;;;;;;54.20;29.08;;;;;;;;;;5085229;28;20180;-82
2022/01/26 11:12:44;;;;;;;52.60;30.17;;;;;;;;;;5095360;28;20206;-83
2022/01/26 11:15:14;;;;;;;56.22;29.63;;;;;;;;;;5093426;28;20192;-82
2022/01/26 11:17:46;;;;;;;56.65;28.27;;;;;;;;;;5091828;28;20204;-83
2022/01/26 11:20:20;;;;;;;50.85;28.73;;;;;;;;;;5090308;28;20198;-82
2022/01/26 11:22:54;;;;;;;53.63;26.02;;;;;;;;;;5086184;28;20180;-83
2022/01/26 11:25:21;;;;;;;44.63;24.85;;;;;;;;;;5083957;28;20172;-83
2022/01/26 11:27:47;;;;;;;54.38;28.38;;;;;;;;;;5098486;28;20199;-82
2022/01/26 11:30:32;;;;;;;52.95;26.05;;;;;;;;;;5093949;28;20251;-83
2022/01/26 11:32:59;;;;;;;49.58;26.63;;;;;;;;;;5092108;28;20540;-83
2022/01/26 11:35:26;;;;;;;52.85;25.00;;;;;;;;;;5088008;28;20187;-83
2022/01/26 11:38:05;;;;;;;59.10;27.70;;;;;;;;;;5094531;28;20223;-83
2022/01/26 11:46:09;;;;;;;62.72;30.70;;;;;;;;;;5086582;28;20229;-83
2022/01/26 11:48:36;;;;;;;52.80;27.52;;;;;;;;;;5093133;28;20180;-84
2022/01/26 11:51:03;;;;;;;58.50;29.33;;;;;;;;;;5086821;28;20212;-84
2022/01/26 11:53:29;;;;;;;52.25;26.25;;;;;;;;;;5089997;28;20208;-81
2022/01/26 11:56:03;;;;;;;56.38;28.08;;;;;;;;;;5088343;28;20191;-83
2022/01/26 11:58:29;;;;;;;60.03;31.67;;;;;;;;;;5084391;28;20224;-82
2022/01/26 12:01:14;;;;;;;60.35;30.33;;;;;;;;;;5082805;28;20270;-83
2022/01/26 12:03:57;;;;;;;60.15;31.63;;;;;;;;;;5089631;28;20492;-83
2022/01/26 12:06:36;;;;;;;60.67;32.30;;;;;;;;;;5089049;28;20184;-84
2022/01/26 12:09:03;;;;;;;65.60;30.30;;;;;;;;;;5090492;28;20207;-84
2022/01/26 12:11:29;;;;;;;61.67;30.60;;;;;;;;;;5088703;28;20691;-83
2022/01/26 12:13:59;;;;;;;58.75;32.10;;;;;;;;;;5102424;28;20198;-83
2022/01/26 12:16:32;;;;;;;56.35;28.08;;;;;;;;;;5085626;28;20676;-84
2022/01/26 12:19:11;;;;;;;59.22;30.65;;;;;;;;;;5088681;28;20211;-84
2022/01/26 12:33:28;;;;;;;43.97;23.63;;;;;;;;;;5092598;28;20190;-82
2022/01/26 12:35:58;;;;;;;48.95;23.63;;;;;;;;;;5096401;28;20226;-83
2022/01/26 12:38:50;;;;;;;49.25;23.27;;;;;;;;;;5093292;28;20658;-84
2022/01/26 12:43:49;;;;;;;41.65;22.27;;;;;;;;;;5088695;28;20689;-84
2022/01/26 12:46:15;;;;;;;51.58;23.73;;;;;;;;;;5087109;28;20299;-83
2022/01/26 12:48:42;;;;;;;47.93;26.00;;;;;;;;;;5086429;28;20411;-84
2022/01/26 12:51:09;;;;;;;43.75;21.33;;;;;;;;;;5093735;28;20435;-80
2022/01/26 12:53:35;;;;;;;52.28;23.80;;;;;;;;;;5094888;28;20179;-86
2022/01/26 12:56:03;;;;;;;48.10;24.48;;;;;;;;;;5097802;28;20184;-87
2022/01/26 12:58:31;;;;;;;41.22;21.92;;;;;;;;;;5087498;28;20296;-85
2022/01/26 13:01:17;;;;;;;54.10;25.70;;;;;;;;;;5091305;28;20176;-85
2022/01/26 13:03:44;;;;;;;53.70;26.42;;;;;;;;;;5090715;28;20168;-84
2022/01/26 13:06:23;;;;;;;46.42;26.25;;;;;;;;;;5092799;28;20219;-86
2022/01/26 13:08:54;;;;;;;48.13;27.42;;;;;;;;;;5091842;28;20194;-83
2022/01/26 13:11:24;;;;;;;49.47;26.27;;;;;;;;;;5096266;28;20237;-84
2022/01/26 13:13:50;;;;;;;52.50;26.15;;;;;;;;;;5098302;28;20195;-86
2022/01/26 13:16:24;;;;;;;61.05;27.92;;;;;;;;;;5099212;28;20171;-84
2022/01/26 13:19:18;;;;;;;58.42;26.98;;;;;;;;;;5103505;28;20210;-84
2022/01/26 13:22:24;;;;;;;53.40;27.98;;;;;;;;;;5090762;28;20191;-84
2022/01/26 13:40:22;;;;;;;60.63;28.70;;;;;;;;;;5068686;28;20180;-83
2022/01/26 13:50:42;;;;;;;49.15;24.73;;;;;;;;;;5073357;28;20199;-85
2022/01/26 13:53:13;;;;;;;42.90;23.63;;;;;;;;;;5064368;28;20200;-84
2022/01/26 13:56:04;;;;;;;52.35;28.65;;;;;;;;;;5065902;28;20219;-85
2022/01/26 13:58:55;;;;;;;56.10;27.85;;;;;;;;;;5066648;28;20197;-85
2022/01/26 14:01:21;;;;;;;49.28;24.13;;;;;;;;;;5063714;28;20187;-84
2022/01/26 14:03:52;;;;;;;44.00;25.08;;;;;;;;;;5067214;28;20532;-86
2022/01/26 14:06:18;;;;;;;43.90;25.48;;;;;;;;;;5056580;28;20177;-86
2022/01/26 14:08:44;;;;;;;51.90;24.73;;;;;;;;;;5055185;28;20196;-83
2022/01/26 14:11:10;;;;;;;40.15;23.70;;;;;;;;;;5071868;28;20211;-84
2022/01/26 14:13:37;;;;;;;44.58;23.20;;;;;;;;;;5066623;28;20180;-83
2022/01/26 14:16:05;;;;;;;41.95;23.17;;;;;;;;;;5049298;28;20203;-83
2022/01/26 14:18:47;;;;;;;42.17;23.30;;;;;;;;;;5052912;28;20197;-83
2022/01/26 14:24:12;;;;;;;49.80;24.58;;;;;;;;;;5080156;28;20283;-84
2022/01/26 14:26:40;;;;;;;46.35;24.50;;;;;;;;;;5059729;28;20245;-84
2022/01/26 14:29:15;;;;;;;43.47;23.65;;;;;;;;;;5060720;28;20196;-81
2022/01/26 14:32:00;;;;;;;38.28;22.70;;;;;;;;;;5053047;28;20252;-83
2022/01/26 14:35:04;;;;;;;48.42;22.10;;;;;;;;;;5058030;28;20210;-84
2022/01/26 15:35:01;;;;;;;46.17;24.77;;;;;;;;;;4987258;28;20219;-81
2022/01/26 15:40:43;;;;;;;48.25;24.27;;;;;;;;;;5038089;28;20193;-80
2022/01/26 15:51:47;;;;;;;42.00;21.02;;;;;;;;;;5039629;28;20201;-81
2022/01/26 16:07:38;;;;;;;38.10;21.55;;;;;;;;;;5039689;28;20201;-81
2022/01/26 16:21:02;;;;;;;39.35;21.25;;;;;;;;;;5087815;28;20188;-81
2022/01/26 17:02:08;;;;;;;43.30;23.55;;;;;;;;;;5068209;28;20210;-81
2022/01/26 18:25:52;;;;;;;38.78;21.08;;;;;;;;;;5091305;28;20208;-81
2022/01/26 18:32:31;;;;;;;36.22;20.92;;;;;;;;;;5089899;28;20194;-83
2022/01/26 18:51:29;;;;;;;37.15;21.80;;;;;;;;;;5020806;28;20277;-81
2022/01/26 18:53:55;;;;;;;38.00;21.05;;;;;;;;;;5004363;28;20587;-81
2022/01/26 18:56:21;;;;;;;35.83;19.55;;;;;;;;;;5019994;28;20256;-83
2022/01/26 18:58:47;;;;;;;47.63;26.08;;;;;;;;;;5008114;28;20750;-80
2022/01/26 19:01:13;;;;;;;36.53;21.90;;;;;;;;;;5004199;28;20197;-81
2022/01/26 19:03:40;;;;;;;39.90;23.50;;;;;;;;;;5019059;28;20183;-81
2022/01/26 19:06:06;;;;;;;39.80;23.30;;;;;;;;;;5013790;28;20182;-81
2022/01/26 19:08:32;;;;;;;38.83;22.98;;;;;;;;;;5001955;28;20183;-81
2022/01/26 19:10:58;;;;;;;43.75;22.52;;;;;;;;;;5003199;28;20190;-81
2022/01/26 19:13:30;;;;;;;38.22;20.05;;;;;;;;;;5039131;28;20220;-81
2022/01/26 19:16:02;;;;;;;47.75;24.77;;;;;;;;;;5065182;28;20172;-81
2022/01/26 19:18:46;;;;;;;38.42;21.02;;;;;;;;;;5063817;28;20203;-81
2022/01/26 19:21:39;;;;;;;38.15;21.15;;;;;;;;;;5056994;28;20204;-80
2022/01/26 19:26:36;;;;;;;37.17;21.65;;;;;;;;;;5078065;28;20249;-81
2022/01/26 19:29:15;;;;;;;39.33;22.17;;;;;;;;;;5056758;28;20176;-81
2022/01/26 19:50:53;;;;;;;50.17;23.23;;;;;;;;;;5003519;28;20195;-81
2022/01/26 19:53:19;;;;;;;42.90;25.95;;;;;;;;;;4993245;28;20191;-81
2022/01/26 19:55:45;;;;;;;33.78;19.98;;;;;;;;;;4984019;28;20206;-83
2022/01/26 19:58:12;;;;;;;30.98;19.00;;;;;;;;;;5007931;28;20199;-81
2022/01/26 20:00:39;;;;;;;34.17;20.45;;;;;;;;;;5010900;28;20174;-81
2022/01/26 20:03:05;;;;;;;31.33;21.33;;;;;;;;;;4996071;28;20187;-82
2022/01/26 20:05:35;;;;;;;29.50;19.30;;;;;;;;;;4982941;28;20323;-82
2022/01/26 20:08:08;;;;;;;38.40;23.25;;;;;;;;;;4981319;28;20182;-84
2022/01/26 20:10:40;;;;;;;32.42;20.00;;;;;;;;;;5003037;28;20190;-82
2022/01/26 20:13:15;;;;;;;32.67;20.23;;;;;;;;;;4979035;28;20194;-81
2022/01/26 20:15:41;;;;;;;41.22;21.77;;;;;;;;;;4984567;28;20205;-82
2022/01/26 20:18:12;;;;;;;31.42;18.65;;;;;;;;;;4995150;28;20219;-83
2022/01/26 20:20:38;;;;;;;33.80;20.27;;;;;;;;;;4994007;28;20183;-83
2022/01/26 20:23:04;;;;;;;31.25;19.25;;;;;;;;;;4993579;28;20198;-83
2022/01/26 20:25:31;;;;;;;31.40;19.77;;;;;;;;;;5036069;28;20261;-82
2022/01/26 20:28:04;;;;;;;37.05;22.10;;;;;;;;;;5061651;28;20184;-82
2022/01/26 20:30:33;;;;;;;33.05;21.13;;;;;;;;;;5063928;28;20199;-82
2022/01/26 20:32:59;;;;;;;41.22;21.05;;;;;;;;;;5071039;28;20185;-82
2022/01/26 20:35:25;;;;;;;40.50;21.02;;;;;;;;;;5067910;28;20532;-81
2022/01/26 20:37:51;;;;;;;40.47;20.85;;;;;;;;;;5079942;28;20314;-83
2022/01/26 20:40:17;;;;;;;33.97;21.38;;;;;;;;;;5104056;28;20221;-82
2022/01/26 20:42:44;;;;;;;35.00;19.42;;;;;;;;;;5083128;28;20226;-83
2022/01/26 20:45:11;;;;;;;33.35;20.73;;;;;;;;;;5100154;28;20196;-83
2022/01/26 20:47:38;;;;;;;32.80;19.48;;;;;;;;;;5085907;28;20726;-84
2022/01/26 20:50:05;;;;;;;38.25;20.98;;;;;;;;;;5085387;28;20264;-84
2022/01/26 20:52:31;;;;;;;31.60;18.75;;;;;;;;;;5100010;28;20652;-82
2022/01/26 20:55:00;;;;;;;32.38;18.90;;;;;;;;;;5102975;28;20631;-83
2022/01/26 20:57:27;;;;;;;33.08;18.77;;;;;;;;;;5102775;28;20179;-83
2022/01/26 20:59:53;;;;;;;31.40;16.38;;;;;;;;;;5100231;28;20694;-82
2022/01/26 21:02:19;;;;;;;32.08;18.58;;;;;;;;;;5082289;28;20192;-83